sensor_id;sensor_type;location;lat;lon;timestamp;pressure;altitude;pressure_sealevel;temperature;humidity
60015;BME280;45867;52.480;6.056;2022-12-10T00:01:52;100843.41;;;-4.36;100.00
60015;BME280;45867;52.480;6.056;2022-12-10T00:04:29;100845.50;;;-4.40;100.00
60015;BME280;45867;52.480;6.056;2022-12-10T00:07:00;100851.16;;;-4.36;100.00
60015;BME280;45867;52.480;6.056;2022-12-10T00:09:39;100851.75;;;-4.26;100.00
60015;BME280;45867;52.480;6.056;2022-12-10T00:12:12;100848.44;;;-4.04;100.00
60015;BME280;45867;52.480;6.056;2022-12-10T00:14:41;100831.88;;;-3.94;100.00
60015;BME280;45867;52.480;6.056;2022-12-10T00:17:08;100845.06;;;-3.81;100.00
60015;BME280;45867;52.480;6.056;2022-12-10T00:19:36;100845.53;;;-3.77;100.00
60015;BME280;45867;52.480;6.056;2022-12-10T00:22:09;100845.56;;;-3.54;100.00
60015;BME280;45867;52.480;6.056;2022-12-10T00:24:39;100839.69;;;-3.48;100.00
60015;BME280;45867;52.480;6.056;2022-12-10T00:27:07;100830.69;;;-3.38;100.00
60015;BME280;45867;52.480;6.056;2022-12-10T00:29:49;100837.06;;;-3.25;100.00
60015;BME280;45867;52.480;6.056;2022-12-10T00:32:21;100844.66;;;-3.24;100.00
60015;BME280;45867;52.480;6.056;2022-12-10T00:34:49;100843.16;;;-3.18;100.00
60015;BME280;45867;52.480;6.056;2022-12-10T00:37:18;100843.53;;;-3.06;100.00
60015;BME280;45867;52.480;6.056;2022-12-10T00:39:53;100838.47;;;-3.00;100.00
60015;BME280;45867;52.480;6.056;2022-12-10T00:42:34;100839.50;;;-3.09;100.00
60015;BME280;45867;52.480;6.056;2022-12-10T00:45:06;100839.44;;;-3.01;100.00
60015;BME280;45867;52.480;6.056;2022-12-10T00:47:38;100831.06;;;-2.88;100.00
60015;BME280;45867;52.480;6.056;2022-12-10T00:50:07;100835.16;;;-2.79;100.00
60015;BME280;45867;52.480;6.056;2022-12-10T00:52:47;100837.31;;;-2.82;100.00
60015;BME280;45867;52.480;6.056;2022-12-10T00:55:17;100832.78;;;-2.80;100.00
60015;BME280;45867;52.480;6.056;2022-12-10T00:57:47;100834.00;;;-2.76;100.00
60015;BME280;45867;52.480;6.056;2022-12-10T01:00:18;100839.75;;;-2.81;100.00
60015;BME280;45867;52.480;6.056;2022-12-10T01:02:47;100836.69;;;-2.84;100.00
60015;BME280;45867;52.480;6.056;2022-12-10T01:05:20;100830.78;;;-2.93;100.00
60015;BME280;45867;52.480;6.056;2022-12-10T01:07:51;100838.13;;;-2.82;100.00
60015;BME280;45867;52.480;6.056;2022-12-10T01:10:21;100838.75;;;-2.80;100.00
60015;BME280;45867;52.480;6.056;2022-12-10T01:12:53;100843.84;;;-2.86;100.00
60015;BME280;45867;52.480;6.056;2022-12-10T01:15:22;100841.72;;;-2.68;100.00
60015;BME280;45867;52.480;6.056;2022-12-10T01:17:52;100852.00;;;-2.60;100.00
60015;BME280;45867;52.480;6.056;2022-12-10T01:20:20;100830.09;;;-2.72;100.00
60015;BME280;45867;52.480;6.056;2022-12-10T01:22:53;100861.31;;;-2.51;100.00
60015;BME280;45867;52.480;6.056;2022-12-10T01:25:25;100848.72;;;-2.54;100.00
60015;BME280;45867;52.480;6.056;2022-12-10T01:27:56;100862.19;;;-2.43;100.00
60015;BME280;45867;52.480;6.056;2022-12-10T01:30:35;100852.63;;;-2.43;100.00
60015;BME280;45867;52.480;6.056;2022-12-10T01:33:14;100863.81;;;-2.42;100.00
60015;BME280;45867;52.480;6.056;2022-12-10T01:35:49;100867.59;;;-2.45;100.00
60015;BME280;45867;52.480;6.056;2022-12-10T01:38:23;100866.22;;;-2.41;100.00
60015;BME280;45867;52.480;6.056;2022-12-10T01:41:00;100869.09;;;-2.36;100.00
60015;BME280;45867;52.480;6.056;2022-12-10T01:43:50;100878.03;;;-2.38;100.00
60015;BME280;45867;52.480;6.056;2022-12-10T01:46:39;100878.03;;;-2.38;100.00
60015;BME280;45867;52.480;6.056;2022-12-10T01:49:40;100869.44;;;-2.39;100.00
60015;BME280;45867;52.480;6.056;2022-12-10T01:52:20;100868.19;;;-2.43;100.00
60015;BME280;45867;52.480;6.056;2022-12-10T01:54:59;100873.66;;;-2.38;100.00
60015;BME280;45867;52.480;6.056;2022-12-10T01:57:40;100866.78;;;-2.46;100.00
60015;BME280;45867;52.480;6.056;2022-12-10T02:00:15;100871.59;;;-2.57;100.00
60015;BME280;45867;52.480;6.056;2022-12-10T02:02:55;100864.88;;;-2.66;100.00
60015;BME280;45867;52.480;6.056;2022-12-10T02:06:05;100863.91;;;-2.80;100.00
60015;BME280;45867;52.480;6.056;2022-12-10T02:08:41;100868.44;;;-2.82;100.00
60015;BME280;45867;52.480;6.056;2022-12-10T02:11:31;100873.88;;;-2.92;100.00
60015;BME280;45867;52.480;6.056;2022-12-10T02:14:23;100871.97;;;-2.98;100.00
60015;BME280;45867;52.480;6.056;2022-12-10T02:16:59;100866.44;;;-3.10;100.00
60015;BME280;45867;52.480;6.056;2022-12-10T02:19:43;100870.00;;;-3.11;100.00
60015;BME280;45867;52.480;6.056;2022-12-10T02:22:14;100869.59;;;-3.23;100.00
60015;BME280;45867;52.480;6.056;2022-12-10T02:24:42;100859.41;;;-3.24;100.00
60015;BME280;45867;52.480;6.056;2022-12-10T02:27:37;100867.34;;;-3.26;100.00
60015;BME280;45867;52.480;6.056;2022-12-10T02:30:07;100861.53;;;-3.28;100.00
60015;BME280;45867;52.480;6.056;2022-12-10T02:32:44;100855.91;;;-3.31;100.00
60015;BME280;45867;52.480;6.056;2022-12-10T02:35:19;100863.53;;;-3.30;100.00
60015;BME280;45867;52.480;6.056;2022-12-10T02:37:59;100854.66;;;-3.36;100.00
60015;BME280;45867;52.480;6.056;2022-12-10T02:40:31;100852.69;;;-3.33;100.00
60015;BME280;45867;52.480;6.056;2022-12-10T02:42:58;100850.94;;;-3.41;100.00
60015;BME280;45867;52.480;6.056;2022-12-10T02:45:33;100832.59;;;-3.54;100.00
60015;BME280;45867;52.480;6.056;2022-12-10T02:48:13;100849.00;;;-3.39;100.00
60015;BME280;45867;52.480;6.056;2022-12-10T02:50:48;100851.22;;;-3.36;100.00
60015;BME280;45867;52.480;6.056;2022-12-10T02:53:18;100851.19;;;-3.51;100.00
60015;BME280;45867;52.480;6.056;2022-12-10T03:04:39;100852.59;;;-3.71;100.00
60015;BME280;45867;52.480;6.056;2022-12-10T03:07:15;100861.56;;;-3.82;100.00
60015;BME280;45867;52.480;6.056;2022-12-10T03:09:58;100853.22;;;-3.92;100.00
60015;BME280;45867;52.480;6.056;2022-12-10T03:12:51;100855.91;;;-4.09;100.00
60015;BME280;45867;52.480;6.056;2022-12-10T03:15:19;100871.25;;;-4.07;100.00
60015;BME280;45867;52.480;6.056;2022-12-10T03:17:47;100862.53;;;-4.06;100.00
60015;BME280;45867;52.480;6.056;2022-12-10T03:20:15;100865.84;;;-3.89;100.00
60015;BME280;45867;52.480;6.056;2022-12-10T03:22:45;100860.72;;;-3.74;100.00
60015;BME280;45867;52.480;6.056;2022-12-10T03:25:16;100865.84;;;-3.66;100.00
60015;BME280;45867;52.480;6.056;2022-12-10T03:27:43;100859.72;;;-3.65;100.00
60015;BME280;45867;52.480;6.056;2022-12-10T03:30:11;100849.56;;;-3.75;100.00
60015;BME280;45867;52.480;6.056;2022-12-10T03:32:38;100846.34;;;-3.77;100.00
60015;BME280;45867;52.480;6.056;2022-12-10T03:35:08;100860.09;;;-3.76;100.00
60015;BME280;45867;52.480;6.056;2022-12-10T03:37:46;100845.22;;;-3.83;100.00
60015;BME280;45867;52.480;6.056;2022-12-10T03:40:21;100857.72;;;-3.86;100.00
60015;BME280;45867;52.480;6.056;2022-12-10T03:42:57;100864.50;;;-3.85;100.00
60015;BME280;45867;52.480;6.056;2022-12-10T03:45:27;100841.19;;;-3.85;100.00
60015;BME280;45867;52.480;6.056;2022-12-10T03:47:58;100861.66;;;-3.67;100.00
60015;BME280;45867;52.480;6.056;2022-12-10T03:50:27;100850.78;;;-3.63;100.00
60015;BME280;45867;52.480;6.056;2022-12-10T03:53:04;100861.59;;;-3.59;100.00
60015;BME280;45867;52.480;6.056;2022-12-10T03:55:44;100856.81;;;-3.70;100.00
60015;BME280;45867;52.480;6.056;2022-12-10T03:58:31;100857.28;;;-3.67;100.00
60015;BME280;45867;52.480;6.056;2022-12-10T04:01:03;100860.72;;;-3.74;100.00
60015;BME280;45867;52.480;6.056;2022-12-10T04:03:38;100856.88;;;-3.78;100.00
60015;BME280;45867;52.480;6.056;2022-12-10T04:06:15;100860.78;;;-3.83;100.00
60015;BME280;45867;52.480;6.056;2022-12-10T04:08:42;100859.31;;;-3.85;100.00
60015;BME280;45867;52.480;6.056;2022-12-10T04:11:16;100858.88;;;-3.89;100.00
60015;BME280;45867;52.480;6.056;2022-12-10T04:13:51;100853.03;;;-3.91;100.00
60015;BME280;45867;52.480;6.056;2022-12-10T04:16:41;100858.22;;;-3.91;100.00
60015;BME280;45867;52.480;6.056;2022-12-10T04:19:16;100865.38;;;-3.93;100.00
60015;BME280;45867;52.480;6.056;2022-12-10T04:21:49;100865.88;;;-3.97;100.00
60015;BME280;45867;52.480;6.056;2022-12-10T04:24:47;100872.50;;;-3.95;100.00
60015;BME280;45867;52.480;6.056;2022-12-10T04:27:51;100870.81;;;-3.88;100.00
60015;BME280;45867;52.480;6.056;2022-12-10T04:30:17;100874.44;;;-3.97;100.00
60015;BME280;45867;52.480;6.056;2022-12-10T04:32:43;100868.63;;;-3.99;100.00
60015;BME280;45867;52.480;6.056;2022-12-10T04:35:09;100871.41;;;-4.00;100.00
60015;BME280;45867;52.480;6.056;2022-12-10T04:37:38;100879.28;;;-3.94;100.00
60015;BME280;45867;52.480;6.056;2022-12-10T04:40:05;100861.03;;;-4.00;100.00
60015;BME280;45867;52.480;6.056;2022-12-10T04:42:38;100863.44;;;-3.99;100.00
60015;BME280;45867;52.480;6.056;2022-12-10T04:45:04;100874.09;;;-3.94;100.00
60015;BME280;45867;52.480;6.056;2022-12-10T04:47:32;100867.66;;;-3.98;100.00
60015;BME280;45867;52.480;6.056;2022-12-10T04:50:02;100876.25;;;-4.06;100.00
60015;BME280;45867;52.480;6.056;2022-12-10T04:52:39;100870.63;;;-4.09;100.00
60015;BME280;45867;52.480;6.056;2022-12-10T04:55:08;100870.63;;;-4.09;100.00
60015;BME280;45867;52.480;6.056;2022-12-10T04:57:49;100865.94;;;-4.14;100.00
60015;BME280;45867;52.480;6.056;2022-12-10T05:00:16;100869.34;;;-4.13;100.00
60015;BME280;45867;52.480;6.056;2022-12-10T05:02:48;100877.25;;;-4.15;100.00
60015;BME280;45867;52.480;6.056;2022-12-10T05:05:21;100868.69;;;-4.15;100.00
60015;BME280;45867;52.480;6.056;2022-12-10T05:07:52;100878.88;;;-4.14;100.00
60015;BME280;45867;52.480;6.056;2022-12-10T05:10:23;100869.50;;;-4.15;100.00
60015;BME280;45867;52.480;6.056;2022-12-10T05:12:53;100875.81;;;-4.09;100.00
60015;BME280;45867;52.480;6.056;2022-12-10T05:15:21;100875.81;;;-4.09;100.00
60015;BME280;45867;52.480;6.056;2022-12-10T05:17:52;100881.25;;;-4.04;100.00
60015;BME280;45867;52.480;6.056;2022-12-10T05:20:19;100883.22;;;-4.06;100.00
60015;BME280;45867;52.480;6.056;2022-12-10T05:22:50;100875.31;;;-4.13;100.00
60015;BME280;45867;52.480;6.056;2022-12-10T05:25:36;100873.84;;;-4.07;100.00
60015;BME280;45867;52.480;6.056;2022-12-10T05:28:28;100871.44;;;-4.09;100.00
60015;BME280;45867;52.480;6.056;2022-12-10T05:30:55;100872.69;;;-4.05;100.00
60015;BME280;45867;52.480;6.056;2022-12-10T05:33:28;100871.94;;;-4.13;100.00
60015;BME280;45867;52.480;6.056;2022-12-10T05:36:14;100878.06;;;-4.06;100.00
60015;BME280;45867;52.480;6.056;2022-12-10T05:38:55;100884.16;;;-3.99;100.00
60015;BME280;45867;52.480;6.056;2022-12-10T05:41:38;100893.41;;;-4.05;100.00
60015;BME280;45867;52.480;6.056;2022-12-10T05:44:11;100893.69;;;-3.99;100.00
60015;BME280;45867;52.480;6.056;2022-12-10T05:46:42;100882.09;;;-4.04;100.00
60015;BME280;45867;52.480;6.056;2022-12-10T05:49:18;100892.59;;;-4.05;100.00
60015;BME280;45867;52.480;6.056;2022-12-10T05:51:54;100890.81;;;-4.05;100.00
60015;BME280;45867;52.480;6.056;2022-12-10T05:54:25;100889.03;;;-4.04;100.00
60015;BME280;45867;52.480;6.056;2022-12-10T05:56:51;100901.00;;;-4.03;100.00
60015;BME280;45867;52.480;6.056;2022-12-10T05:59:17;100894.72;;;-4.09;100.00
60015;BME280;45867;52.480;6.056;2022-12-10T06:01:45;100898.56;;;-4.05;100.00
60015;BME280;45867;52.480;6.056;2022-12-10T06:04:11;100906.22;;;-4.11;100.00
60015;BME280;45867;52.480;6.056;2022-12-10T06:06:38;100897.97;;;-4.15;100.00
60015;BME280;45867;52.480;6.056;2022-12-10T06:09:05;100904.44;;;-4.11;100.00
60015;BME280;45867;52.480;6.056;2022-12-10T06:11:31;100906.88;;;-4.09;100.00
60015;BME280;45867;52.480;6.056;2022-12-10T06:13:57;100889.72;;;-4.18;100.00
60015;BME280;45867;52.480;6.056;2022-12-10T06:16:24;100907.13;;;-4.04;100.00
60015;BME280;45867;52.480;6.056;2022-12-10T06:18:50;100900.38;;;-4.05;100.00
60015;BME280;45867;52.480;6.056;2022-12-10T06:21:17;100908.13;;;-4.05;100.00
60015;BME280;45867;52.480;6.056;2022-12-10T06:23:44;100902.63;;;-4.02;100.00
60015;BME280;45867;52.480;6.056;2022-12-10T06:26:12;100908.78;;;-4.03;100.00
60015;BME280;45867;52.480;6.056;2022-12-10T06:28:38;100888.91;;;-4.11;100.00
60015;BME280;45867;52.480;6.056;2022-12-10T06:31:04;100906.31;;;-3.96;100.00
60015;BME280;45867;52.480;6.056;2022-12-10T06:33:30;100912.94;;;-3.94;100.00
60015;BME280;45867;52.480;6.056;2022-12-10T06:35:56;100911.16;;;-3.93;100.00
60015;BME280;45867;52.480;6.056;2022-12-10T06:38:21;100902.22;;;-3.91;100.00
60015;BME280;45867;52.480;6.056;2022-12-10T06:40:47;100913.56;;;-3.92;100.00
60015;BME280;45867;52.480;6.056;2022-12-10T06:43:12;100900.03;;;-4.02;100.00
60015;BME280;45867;52.480;6.056;2022-12-10T06:45:39;100916.81;;;-3.90;100.00
60015;BME280;45867;52.480;6.056;2022-12-10T06:48:05;100913.06;;;-3.87;100.00
60015;BME280;45867;52.480;6.056;2022-12-10T06:50:30;100902.47;;;-4.00;100.00
60015;BME280;45867;52.480;6.056;2022-12-10T06:52:55;100910.69;;;-3.97;100.00
60015;BME280;45867;52.480;6.056;2022-12-10T06:55:21;100905.34;;;-3.95;100.00
60015;BME280;45867;52.480;6.056;2022-12-10T06:57:55;100901.47;;;-3.99;100.00
60015;BME280;45867;52.480;6.056;2022-12-10T07:00:20;100917.91;;;-3.84;100.00
60015;BME280;45867;52.480;6.056;2022-12-10T07:02:46;100924.19;;;-3.78;100.00
60015;BME280;45867;52.480;6.056;2022-12-10T07:05:12;100929.06;;;-3.84;100.00
60015;BME280;45867;52.480;6.056;2022-12-10T07:07:38;100938.59;;;-3.76;100.00
60015;BME280;45867;52.480;6.056;2022-12-10T07:10:04;100934.84;;;-3.73;100.00
60015;BME280;45867;52.480;6.056;2022-12-10T07:12:29;100935.19;;;-3.76;100.00
60015;BME280;45867;52.480;6.056;2022-12-10T07:14:55;100917.38;;;-3.80;100.00
60015;BME280;45867;52.480;6.056;2022-12-10T07:17:20;100918.03;;;-3.77;100.00
60015;BME280;45867;52.480;6.056;2022-12-10T07:19:46;100937.75;;;-3.68;100.00
60015;BME280;45867;52.480;6.056;2022-12-10T07:22:11;100924.66;;;-3.75;100.00
60015;BME280;45867;52.480;6.056;2022-12-10T07:24:36;100949.03;;;-3.61;100.00
60015;BME280;45867;52.480;6.056;2022-12-10T07:27:05;100946.81;;;-3.72;100.00
60015;BME280;45867;52.480;6.056;2022-12-10T07:29:30;100954.94;;;-3.75;100.00
60015;BME280;45867;52.480;6.056;2022-12-10T07:31:56;100955.59;;;-3.82;100.00
60015;BME280;45867;52.480;6.056;2022-12-10T07:34:21;100957.72;;;-3.85;100.00
60015;BME280;45867;52.480;6.056;2022-12-10T07:36:47;100956.75;;;-3.84;100.00
60015;BME280;45867;52.480;6.056;2022-12-10T07:39:13;100966.44;;;-3.78;100.00
60015;BME280;45867;52.480;6.056;2022-12-10T07:41:44;100973.69;;;-3.73;100.00
60015;BME280;45867;52.480;6.056;2022-12-10T07:44:11;100967.88;;;-3.75;100.00
60015;BME280;45867;52.480;6.056;2022-12-10T07:46:37;100979.50;;;-3.71;100.00
60015;BME280;45867;52.480;6.056;2022-12-10T07:49:03;100968.41;;;-3.88;100.00
60015;BME280;45867;52.480;6.056;2022-12-10T07:51:29;100961.13;;;-3.85;100.00
60015;BME280;45867;52.480;6.056;2022-12-10T07:53:55;100966.91;;;-3.83;100.00
60015;BME280;45867;52.480;6.056;2022-12-10T07:56:21;100982.94;;;-3.79;100.00
60015;BME280;45867;52.480;6.056;2022-12-10T07:58:48;100983.53;;;-3.69;100.00
60015;BME280;45867;52.480;6.056;2022-12-10T08:01:16;100984.69;;;-3.71;100.00
60015;BME280;45867;52.480;6.056;2022-12-10T08:03:42;100983.22;;;-3.74;100.00
60015;BME280;45867;52.480;6.056;2022-12-10T08:06:27;100982.72;;;-3.69;100.00
60015;BME280;45867;52.480;6.056;2022-12-10T08:08:53;100985.97;;;-3.67;100.00
60015;BME280;45867;52.480;6.056;2022-12-10T08:11:20;100988.19;;;-3.56;100.00
60015;BME280;45867;52.480;6.056;2022-12-10T08:13:49;100995.50;;;-3.60;100.00
60015;BME280;45867;52.480;6.056;2022-12-10T08:16:20;100991.47;;;-3.62;100.00
60015;BME280;45867;52.480;6.056;2022-12-10T08:18:48;100998.59;;;-3.64;100.00
60015;BME280;45867;52.480;6.056;2022-12-10T08:21:16;100999.53;;;-3.57;100.00
60015;BME280;45867;52.480;6.056;2022-12-10T08:23:43;100996.63;;;-3.62;100.00
60015;BME280;45867;52.480;6.056;2022-12-10T08:26:14;100971.72;;;-3.71;100.00
60015;BME280;45867;52.480;6.056;2022-12-10T08:28:43;100969.81;;;-3.77;100.00
60015;BME280;45867;52.480;6.056;2022-12-10T08:31:10;100992.56;;;-3.57;100.00
60015;BME280;45867;52.480;6.056;2022-12-10T08:33:37;100996.06;;;-3.49;100.00
60015;BME280;45867;52.480;6.056;2022-12-10T08:36:05;100999.84;;;-3.52;100.00
60015;BME280;45867;52.480;6.056;2022-12-10T08:38:31;100989.63;;;-3.53;100.00
60015;BME280;45867;52.480;6.056;2022-12-10T08:40:57;101005.94;;;-3.45;100.00
60015;BME280;45867;52.480;6.056;2022-12-10T08:43:23;101003.81;;;-3.41;100.00
60015;BME280;45867;52.480;6.056;2022-12-10T08:45:53;100986.06;;;-3.52;100.00
60015;BME280;45867;52.480;6.056;2022-12-10T08:48:22;100982.19;;;-3.57;100.00
60015;BME280;45867;52.480;6.056;2022-12-10T08:50:51;101002.03;;;-3.41;100.00
60015;BME280;45867;52.480;6.056;2022-12-10T08:53:16;100980.38;;;-3.48;100.00
60015;BME280;45867;52.480;6.056;2022-12-10T08:55:42;100996.69;;;-3.39;100.00
60015;BME280;45867;52.480;6.056;2022-12-10T08:58:15;101021.50;;;-3.14;100.00
60015;BME280;45867;52.480;6.056;2022-12-10T09:00:41;101003.09;;;-3.27;100.00
60015;BME280;45867;52.480;6.056;2022-12-10T09:03:08;101009.38;;;-3.21;100.00
60015;BME280;45867;52.480;6.056;2022-12-10T09:05:34;101014.44;;;-3.28;100.00
60015;BME280;45867;52.480;6.056;2022-12-10T09:07:59;101007.09;;;-3.16;100.00
60015;BME280;45867;52.480;6.056;2022-12-10T09:10:30;101009.34;;;-3.13;100.00
60015;BME280;45867;52.480;6.056;2022-12-10T09:12:59;101017.63;;;-3.18;100.00
60015;BME280;45867;52.480;6.056;2022-12-10T09:15:25;101026.44;;;-3.04;100.00
60015;BME280;45867;52.480;6.056;2022-12-10T09:17:51;101026.16;;;-3.09;100.00
60015;BME280;45867;52.480;6.056;2022-12-10T09:20:17;101021.59;;;-3.07;100.00
60015;BME280;45867;52.480;6.056;2022-12-10T09:22:42;101017.91;;;-3.13;100.00
60015;BME280;45867;52.480;6.056;2022-12-10T09:25:09;101010.59;;;-3.09;100.00
60015;BME280;45867;52.480;6.056;2022-12-10T09:27:40;101012.28;;;-3.16;100.00
60015;BME280;45867;52.480;6.056;2022-12-10T09:30:06;101025.16;;;-3.00;100.00
60015;BME280;45867;52.480;6.056;2022-12-10T09:32:32;101031.88;;;-2.91;100.00
60015;BME280;45867;52.480;6.056;2022-12-10T09:34:58;101041.09;;;-2.88;100.00
60015;BME280;45867;52.480;6.056;2022-12-10T09:37:23;101025.75;;;-2.98;100.00
60015;BME280;45867;52.480;6.056;2022-12-10T09:39:51;101040.75;;;-2.85;100.00
60015;BME280;45867;52.480;6.056;2022-12-10T09:42:28;101014.94;;;-3.01;100.00
60015;BME280;45867;52.480;6.056;2022-12-10T09:45:12;101049.19;;;-2.83;100.00
60015;BME280;45867;52.480;6.056;2022-12-10T09:47:49;101038.00;;;-2.83;100.00
60015;BME280;45867;52.480;6.056;2022-12-10T09:52:53;101037.47;;;-2.79;100.00
60015;BME280;45867;52.480;6.056;2022-12-10T09:55:37;101051.81;;;-2.68;100.00
60015;BME280;45867;52.480;6.056;2022-12-10T09:58:09;101041.97;;;-2.73;100.00
60015;BME280;45867;52.480;6.056;2022-12-10T10:00:40;101042.59;;;-2.71;100.00
60015;BME280;45867;52.480;6.056;2022-12-10T10:03:12;101052.34;;;-2.73;100.00
60015;BME280;45867;52.480;6.056;2022-12-10T10:05:41;101061.63;;;-2.55;100.00
60015;BME280;45867;52.480;6.056;2022-12-10T10:08:29;101047.91;;;-2.64;100.00
60015;BME280;45867;52.480;6.056;2022-12-10T10:10:58;101045.66;;;-2.67;100.00
60015;BME280;45867;52.480;6.056;2022-12-10T10:15:51;101055.78;;;-2.57;100.00
60015;BME280;45867;52.480;6.056;2022-12-10T10:18:39;101052.34;;;-2.50;100.00
60015;BME280;45867;52.480;6.056;2022-12-10T10:21:16;101060.94;;;-2.49;100.00
60015;BME280;45867;52.480;6.056;2022-12-10T10:23:45;101049.84;;;-2.43;100.00
60015;BME280;45867;52.480;6.056;2022-12-10T10:26:11;101049.03;;;-2.43;100.00
60015;BME280;45867;52.480;6.056;2022-12-10T10:28:39;101060.63;;;-2.31;100.00
60015;BME280;45867;52.480;6.056;2022-12-10T10:31:18;101056.16;;;-2.22;100.00
60015;BME280;45867;52.480;6.056;2022-12-10T10:33:59;101062.81;;;-2.20;100.00
60015;BME280;45867;52.480;6.056;2022-12-10T10:36:33;101053.41;;;-2.21;100.00
60015;BME280;45867;52.480;6.056;2022-12-10T10:41:41;101064.94;;;-2.24;100.00
60015;BME280;45867;52.480;6.056;2022-12-10T10:44:15;101073.00;;;-2.18;100.00
60015;BME280;45867;52.480;6.056;2022-12-10T10:46:43;101061.19;;;-2.21;100.00
60015;BME280;45867;52.480;6.056;2022-12-10T10:49:27;101066.19;;;-2.19;100.00
60015;BME280;45867;52.480;6.056;2022-12-10T10:51:58;101041.22;;;-2.20;100.00
60015;BME280;45867;52.480;6.056;2022-12-10T10:54:38;101057.81;;;-2.07;100.00
60015;BME280;45867;52.480;6.056;2022-12-10T10:59:55;101055.94;;;-1.98;100.00
60015;BME280;45867;52.480;6.056;2022-12-10T11:02:41;101051.75;;;-1.99;100.00
60015;BME280;45867;52.480;6.056;2022-12-10T11:05:22;101063.38;;;-1.95;100.00
60015;BME280;45867;52.480;6.056;2022-12-10T11:08:00;101062.13;;;-1.99;100.00
60015;BME280;45867;52.480;6.056;2022-12-10T11:10:26;101055.78;;;-1.82;100.00
60015;BME280;45867;52.480;6.056;2022-12-10T11:12:56;101053.00;;;-1.80;100.00
60015;BME280;45867;52.480;6.056;2022-12-10T11:17:49;101059.44;;;-1.76;100.00
60015;BME280;45867;52.480;6.056;2022-12-10T11:22:49;101059.78;;;-1.64;100.00
60015;BME280;45867;52.480;6.056;2022-12-10T11:25:15;101052.84;;;-1.64;100.00
60015;BME280;45867;52.480;6.056;2022-12-10T11:27:56;101056.13;;;-1.55;100.00
60015;BME280;45867;52.480;6.056;2022-12-10T11:30:26;101047.38;;;-1.69;100.00
60015;BME280;45867;52.480;6.056;2022-12-10T11:33:14;101054.88;;;-1.59;100.00
60015;BME280;45867;52.480;6.056;2022-12-10T11:52:12;101044.66;;;-1.31;100.00
60015;BME280;45867;52.480;6.056;2022-12-10T11:55:02;101045.06;;;-1.27;100.00
60015;BME280;45867;52.480;6.056;2022-12-10T11:57:49;101038.00;;;-1.33;100.00
60015;BME280;45867;52.480;6.056;2022-12-10T12:00:22;101046.81;;;-1.49;100.00
60015;BME280;45867;52.480;6.056;2022-12-10T12:08:13;101036.41;;;-1.49;100.00
60015;BME280;45867;52.480;6.056;2022-12-10T12:11:01;101041.97;;;-1.52;100.00
60015;BME280;45867;52.480;6.056;2022-12-10T12:13:33;101043.56;;;-1.51;100.00
60015;BME280;45867;52.480;6.056;2022-12-10T12:21:33;101050.97;;;-1.19;100.00
60015;BME280;45867;52.480;6.056;2022-12-10T12:24:12;101042.53;;;-1.21;100.00
60015;BME280;45867;52.480;6.056;2022-12-10T12:26:44;101051.22;;;-1.14;100.00
60015;BME280;45867;52.480;6.056;2022-12-10T12:31:59;101049.16;;;-1.03;100.00
60015;BME280;45867;52.480;6.056;2022-12-10T12:34:52;101038.13;;;-1.20;100.00
60015;BME280;45867;52.480;6.056;2022-12-10T12:37:23;101039.03;;;-1.13;100.00
60015;BME280;45867;52.480;6.056;2022-12-10T12:43:22;101034.19;;;-1.16;100.00
60015;BME280;45867;52.480;6.056;2022-12-10T12:45:49;101052.59;;;-0.96;100.00
60015;BME280;45867;52.480;6.056;2022-12-10T12:48:23;101049.69;;;-1.08;100.00
60015;BME280;45867;52.480;6.056;2022-12-10T12:51:15;101058.66;;;-1.10;100.00
60015;BME280;45867;52.480;6.056;2022-12-10T12:53:45;101063.72;;;-1.24;100.00
60015;BME280;45867;52.480;6.056;2022-12-10T12:59:01;101066.16;;;-1.37;100.00
60015;BME280;45867;52.480;6.056;2022-12-10T13:01:36;101067.56;;;-1.35;100.00
60015;BME280;45867;52.480;6.056;2022-12-10T13:04:04;101069.53;;;-1.37;100.00
60015;BME280;45867;52.480;6.056;2022-12-10T13:06:35;101073.78;;;-1.36;100.00
60015;BME280;45867;52.480;6.056;2022-12-10T13:11:36;101061.03;;;-1.45;100.00
60015;BME280;45867;52.480;6.056;2022-12-10T13:21:58;101068.94;;;-1.39;100.00
60015;BME280;45867;52.480;6.056;2022-12-10T13:29:58;101079.50;;;-1.40;100.00
60015;BME280;45867;52.480;6.056;2022-12-10T13:32:43;101072.91;;;-1.58;100.00
60015;BME280;45867;52.480;6.056;2022-12-10T13:40:13;101078.88;;;-1.57;100.00
60015;BME280;45867;52.480;6.056;2022-12-10T13:42:43;101073.16;;;-1.67;100.00
60015;BME280;45867;52.480;6.056;2022-12-10T13:45:32;101076.47;;;-1.59;100.00
60015;BME280;45867;52.480;6.056;2022-12-10T13:48:22;101077.00;;;-1.48;100.00
60015;BME280;45867;52.480;6.056;2022-12-10T13:56:32;101078.00;;;-1.79;100.00
60015;BME280;45867;52.480;6.056;2022-12-10T13:59:49;101064.00;;;-1.78;100.00
60015;BME280;45867;52.480;6.056;2022-12-10T14:07:34;101085.00;;;-1.80;100.00
60015;BME280;45867;52.480;6.056;2022-12-10T14:10:01;101082.56;;;-1.81;100.00
60015;BME280;45867;52.480;6.056;2022-12-10T14:12:35;101094.56;;;-1.80;100.00
60015;BME280;45867;52.480;6.056;2022-12-10T14:15:05;101100.75;;;-1.81;100.00
60015;BME280;45867;52.480;6.056;2022-12-10T14:17:40;101111.75;;;-1.79;100.00
60015;BME280;45867;52.480;6.056;2022-12-10T14:20:11;101115.59;;;-1.75;100.00
60015;BME280;45867;52.480;6.056;2022-12-10T14:22:47;101120.56;;;-1.80;100.00
60015;BME280;45867;52.480;6.056;2022-12-10T14:25:15;101117.56;;;-1.92;100.00
60015;BME280;45867;52.480;6.056;2022-12-10T14:27:43;101137.53;;;-1.92;100.00
60015;BME280;45867;52.480;6.056;2022-12-10T14:30:35;101134.59;;;-1.89;100.00
60015;BME280;45867;52.480;6.056;2022-12-10T14:33:08;101121.25;;;-1.86;100.00
60015;BME280;45867;52.480;6.056;2022-12-10T14:35:38;101110.38;;;-2.05;100.00
60015;BME280;45867;52.480;6.056;2022-12-10T14:38:05;101130.91;;;-1.95;100.00
60015;BME280;45867;52.480;6.056;2022-12-10T14:40:41;101129.09;;;-1.94;100.00